sensor_id;sensor_type;location;lat;lon;timestamp;temperature;humidity
14527;DHT22;7350;51.208;4.238;2023-05-21T00:01:55;21.20;99.90
14527;DHT22;7350;51.208;4.238;2023-05-21T00:04:24;21.20;99.90
14527;DHT22;7350;51.208;4.238;2023-05-21T00:06:53;21.20;99.90
14527;DHT22;7350;51.208;4.238;2023-05-21T00:09:20;21.20;99.90
14527;DHT22;7350;51.208;4.238;2023-05-21T00:11:47;21.20;99.90
14527;DHT22;7350;51.208;4.238;2023-05-21T00:14:14;21.20;99.90
14527;DHT22;7350;51.208;4.238;2023-05-21T00:16:42;21.20;99.90
14527;DHT22;7350;51.208;4.238;2023-05-21T00:19:09;21.20;99.90
14527;DHT22;7350;51.208;4.238;2023-05-21T00:21:36;21.20;99.90
14527;DHT22;7350;51.208;4.238;2023-05-21T00:24:04;21.20;99.90
14527;DHT22;7350;51.208;4.238;2023-05-21T00:26:31;21.20;99.90
14527;DHT22;7350;51.208;4.238;2023-05-21T00:28:58;21.20;99.90
14527;DHT22;7350;51.208;4.238;2023-05-21T00:31:25;21.20;99.90
14527;DHT22;7350;51.208;4.238;2023-05-21T00:33:54;21.20;99.90
14527;DHT22;7350;51.208;4.238;2023-05-21T00:36:24;21.10;99.90
14527;DHT22;7350;51.208;4.238;2023-05-21T00:38:51;21.20;99.90
14527;DHT22;7350;51.208;4.238;2023-05-21T00:41:18;21.10;99.90
14527;DHT22;7350;51.208;4.238;2023-05-21T00:43:47;21.10;99.90
14527;DHT22;7350;51.208;4.238;2023-05-21T00:46:17;21.10;99.90
14527;DHT22;7350;51.208;4.238;2023-05-21T00:48:46;21.20;99.90
14527;DHT22;7350;51.208;4.238;2023-05-21T00:51:15;21.10;99.90
14527;DHT22;7350;51.208;4.238;2023-05-21T00:53:43;21.10;99.90
14527;DHT22;7350;51.208;4.238;2023-05-21T00:56:11;21.10;99.90
14527;DHT22;7350;51.208;4.238;2023-05-21T00:58:39;21.10;99.90
14527;DHT22;7350;51.208;4.238;2023-05-21T01:01:07;21.10;99.90
14527;DHT22;7350;51.208;4.238;2023-05-21T01:03:38;21.10;99.90
14527;DHT22;7350;51.208;4.238;2023-05-21T01:06:07;21.10;99.90
14527;DHT22;7350;51.208;4.238;2023-05-21T01:08:36;21.10;99.90
14527;DHT22;7350;51.208;4.238;2023-05-21T01:11:06;21.10;99.90
14527;DHT22;7350;51.208;4.238;2023-05-21T01:13:36;21.10;99.90
14527;DHT22;7350;51.208;4.238;2023-05-21T01:16:04;21.10;99.90
14527;DHT22;7350;51.208;4.238;2023-05-21T01:18:33;21.10;99.90
14527;DHT22;7350;51.208;4.238;2023-05-21T01:21:02;21.10;99.90
14527;DHT22;7350;51.208;4.238;2023-05-21T01:23:31;21.10;99.90
14527;DHT22;7350;51.208;4.238;2023-05-21T01:25:58;21.10;99.90
14527;DHT22;7350;51.208;4.238;2023-05-21T01:28:25;21.10;99.90
14527;DHT22;7350;51.208;4.238;2023-05-21T01:30:55;21.10;99.90
14527;DHT22;7350;51.208;4.238;2023-05-21T01:33:28;21.00;99.90
14527;DHT22;7350;51.208;4.238;2023-05-21T01:36:01;21.10;99.90
14527;DHT22;7350;51.208;4.238;2023-05-21T01:38:32;21.00;99.90
14527;DHT22;7350;51.208;4.238;2023-05-21T01:41:06;21.00;99.90
14527;DHT22;7350;51.208;4.238;2023-05-21T01:43:38;21.00;99.90
14527;DHT22;7350;51.208;4.238;2023-05-21T01:46:08;21.00;99.90
14527;DHT22;7350;51.208;4.238;2023-05-21T01:48:37;21.00;99.90
14527;DHT22;7350;51.208;4.238;2023-05-21T01:51:05;21.00;99.90
14527;DHT22;7350;51.208;4.238;2023-05-21T01:53:33;21.00;99.90
14527;DHT22;7350;51.208;4.238;2023-05-21T01:56:03;21.00;99.90
14527;DHT22;7350;51.208;4.238;2023-05-21T01:58:30;21.00;99.90
14527;DHT22;7350;51.208;4.238;2023-05-21T02:00:57;21.00;99.90
14527;DHT22;7350;51.208;4.238;2023-05-21T02:03:27;21.00;99.90
14527;DHT22;7350;51.208;4.238;2023-05-21T02:05:55;21.00;99.90
14527;DHT22;7350;51.208;4.238;2023-05-21T02:08:22;21.00;99.90
14527;DHT22;7350;51.208;4.238;2023-05-21T02:10:51;21.00;99.90
14527;DHT22;7350;51.208;4.238;2023-05-21T02:13:18;21.00;99.90
14527;DHT22;7350;51.208;4.238;2023-05-21T02:15:47;21.00;99.90
14527;DHT22;7350;51.208;4.238;2023-05-21T02:18:14;20.90;99.90
14527;DHT22;7350;51.208;4.238;2023-05-21T02:20:43;20.90;99.90
14527;DHT22;7350;51.208;4.238;2023-05-21T02:23:10;20.90;99.90
14527;DHT22;7350;51.208;4.238;2023-05-21T02:25:37;20.90;99.90
14527;DHT22;7350;51.208;4.238;2023-05-21T02:28:05;20.90;99.90
14527;DHT22;7350;51.208;4.238;2023-05-21T02:30:32;20.90;99.90
14527;DHT22;7350;51.208;4.238;2023-05-21T02:32:59;20.90;99.90
14527;DHT22;7350;51.208;4.238;2023-05-21T02:35:27;20.90;99.90
14527;DHT22;7350;51.208;4.238;2023-05-21T02:37:54;20.90;99.90
14527;DHT22;7350;51.208;4.238;2023-05-21T02:40:23;20.90;99.90
14527;DHT22;7350;51.208;4.238;2023-05-21T02:42:50;20.90;99.90
14527;DHT22;7350;51.208;4.238;2023-05-21T02:45:19;20.90;99.90
14527;DHT22;7350;51.208;4.238;2023-05-21T02:47:46;20.90;99.90
14527;DHT22;7350;51.208;4.238;2023-05-21T02:50:13;20.90;99.90
14527;DHT22;7350;51.208;4.238;2023-05-21T02:52:40;20.90;99.90
14527;DHT22;7350;51.208;4.238;2023-05-21T02:55:08;20.90;99.90
14527;DHT22;7350;51.208;4.238;2023-05-21T02:57:35;20.90;99.90
14527;DHT22;7350;51.208;4.238;2023-05-21T03:00:03;20.90;99.90
14527;DHT22;7350;51.208;4.238;2023-05-21T03:02:32;20.90;99.90
14527;DHT22;7350;51.208;4.238;2023-05-21T03:04:59;20.90;99.90
14527;DHT22;7350;51.208;4.238;2023-05-21T03:07:26;20.90;99.90
14527;DHT22;7350;51.208;4.238;2023-05-21T03:09:52;20.90;99.90
14527;DHT22;7350;51.208;4.238;2023-05-21T03:12:19;20.90;99.90
14527;DHT22;7350;51.208;4.238;2023-05-21T03:14:47;20.90;99.90
14527;DHT22;7350;51.208;4.238;2023-05-21T03:17:15;20.90;99.90
14527;DHT22;7350;51.208;4.238;2023-05-21T03:19:44;20.90;99.90
14527;DHT22;7350;51.208;4.238;2023-05-21T03:22:13;20.90;99.90
14527;DHT22;7350;51.208;4.238;2023-05-21T03:24:40;20.90;99.90
14527;DHT22;7350;51.208;4.238;2023-05-21T03:27:07;20.90;99.90
14527;DHT22;7350;51.208;4.238;2023-05-21T03:29:34;20.90;99.90
14527;DHT22;7350;51.208;4.238;2023-05-21T03:32:02;21.00;99.90
14527;DHT22;7350;51.208;4.238;2023-05-21T03:34:29;20.90;99.90
14527;DHT22;7350;51.208;4.238;2023-05-21T03:37:00;20.90;99.90
14527;DHT22;7350;51.208;4.238;2023-05-21T03:39:27;20.90;99.90
14527;DHT22;7350;51.208;4.238;2023-05-21T03:41:54;20.90;99.90
14527;DHT22;7350;51.208;4.238;2023-05-21T03:44:21;20.90;99.90
14527;DHT22;7350;51.208;4.238;2023-05-21T03:46:48;20.90;99.90
14527;DHT22;7350;51.208;4.238;2023-05-21T03:49:16;21.00;99.90
14527;DHT22;7350;51.208;4.238;2023-05-21T03:51:43;21.00;99.90
14527;DHT22;7350;51.208;4.238;2023-05-21T03:54:11;21.00;99.90
14527;DHT22;7350;51.208;4.238;2023-05-21T03:56:38;20.90;99.90
14527;DHT22;7350;51.208;4.238;2023-05-21T03:59:05;21.00;99.90
14527;DHT22;7350;51.208;4.238;2023-05-21T04:01:32;21.00;99.90
14527;DHT22;7350;51.208;4.238;2023-05-21T04:03:59;21.00;99.90
14527;DHT22;7350;51.208;4.238;2023-05-21T04:06:26;20.90;99.90
14527;DHT22;7350;51.208;4.238;2023-05-21T04:08:54;20.90;99.90
14527;DHT22;7350;51.208;4.238;2023-05-21T04:11:23;20.90;99.90
14527;DHT22;7350;51.208;4.238;2023-05-21T04:13:50;20.90;99.90
14527;DHT22;7350;51.208;4.238;2023-05-21T04:16:17;20.90;99.90
14527;DHT22;7350;51.208;4.238;2023-05-21T04:18:44;20.90;99.90
14527;DHT22;7350;51.208;4.238;2023-05-21T04:21:12;20.90;99.90
14527;DHT22;7350;51.208;4.238;2023-05-21T04:23:39;20.90;99.90
14527;DHT22;7350;51.208;4.238;2023-05-21T04:26:06;20.80;99.90
14527;DHT22;7350;51.208;4.238;2023-05-21T04:28:34;20.90;99.90
14527;DHT22;7350;51.208;4.238;2023-05-21T04:31:01;20.90;99.90
14527;DHT22;7350;51.208;4.238;2023-05-21T04:33:28;20.80;99.90
14527;DHT22;7350;51.208;4.238;2023-05-21T04:35:55;20.90;99.90
14527;DHT22;7350;51.208;4.238;2023-05-21T04:38:22;20.90;99.90
14527;DHT22;7350;51.208;4.238;2023-05-21T04:40:50;20.80;99.90
14527;DHT22;7350;51.208;4.238;2023-05-21T04:43:18;20.90;99.90
14527;DHT22;7350;51.208;4.238;2023-05-21T04:45:51;20.80;99.90
14527;DHT22;7350;51.208;4.238;2023-05-21T04:48:19;20.80;99.90
14527;DHT22;7350;51.208;4.238;2023-05-21T04:50:47;20.80;99.90
14527;DHT22;7350;51.208;4.238;2023-05-21T04:53:14;20.80;99.90
14527;DHT22;7350;51.208;4.238;2023-05-21T04:55:41;20.80;99.90
14527;DHT22;7350;51.208;4.238;2023-05-21T04:58:08;20.80;99.90
14527;DHT22;7350;51.208;4.238;2023-05-21T05:00:37;20.80;99.90
14527;DHT22;7350;51.208;4.238;2023-05-21T05:03:08;20.80;99.90
14527;DHT22;7350;51.208;4.238;2023-05-21T05:05:35;20.80;99.90
14527;DHT22;7350;51.208;4.238;2023-05-21T05:08:02;20.70;99.90
14527;DHT22;7350;51.208;4.238;2023-05-21T05:10:29;20.70;99.90
14527;DHT22;7350;51.208;4.238;2023-05-21T05:12:56;20.70;99.90
14527;DHT22;7350;51.208;4.238;2023-05-21T05:15:23;20.70;99.90
14527;DHT22;7350;51.208;4.238;2023-05-21T05:17:50;20.70;99.90
14527;DHT22;7350;51.208;4.238;2023-05-21T05:20:20;20.70;99.90
14527;DHT22;7350;51.208;4.238;2023-05-21T05:22:47;20.70;99.90
14527;DHT22;7350;51.208;4.238;2023-05-21T05:25:14;20.80;99.90
14527;DHT22;7350;51.208;4.238;2023-05-21T05:27:41;20.80;99.90
14527;DHT22;7350;51.208;4.238;2023-05-21T05:30:08;20.80;99.90
14527;DHT22;7350;51.208;4.238;2023-05-21T05:32:36;20.80;99.90
14527;DHT22;7350;51.208;4.238;2023-05-21T05:35:03;20.80;99.90
14527;DHT22;7350;51.208;4.238;2023-05-21T05:37:31;20.70;99.90
14527;DHT22;7350;51.208;4.238;2023-05-21T05:39:59;20.80;99.90
14527;DHT22;7350;51.208;4.238;2023-05-21T05:42:26;20.80;99.90
14527;DHT22;7350;51.208;4.238;2023-05-21T05:44:53;20.80;99.90
14527;DHT22;7350;51.208;4.238;2023-05-21T05:47:20;20.80;99.90
14527;DHT22;7350;51.208;4.238;2023-05-21T05:49:47;20.80;99.90
14527;DHT22;7350;51.208;4.238;2023-05-21T05:52:14;20.80;99.90
14527;DHT22;7350;51.208;4.238;2023-05-21T05:54:42;20.70;99.90
14527;DHT22;7350;51.208;4.238;2023-05-21T05:57:09;20.70;99.90
14527;DHT22;7350;51.208;4.238;2023-05-21T05:59:36;20.60;99.90
14527;DHT22;7350;51.208;4.238;2023-05-21T06:02:03;20.70;99.90
14527;DHT22;7350;51.208;4.238;2023-05-21T06:04:30;20.70;99.90
14527;DHT22;7350;51.208;4.238;2023-05-21T06:06:58;20.70;99.90
14527;DHT22;7350;51.208;4.238;2023-05-21T06:09:25;20.60;99.90
14527;DHT22;7350;51.208;4.238;2023-05-21T06:11:53;20.60;99.90
14527;DHT22;7350;51.208;4.238;2023-05-21T06:14:20;20.60;99.90
14527;DHT22;7350;51.208;4.238;2023-05-21T06:16:47;20.70;99.90
14527;DHT22;7350;51.208;4.238;2023-05-21T06:19:14;20.70;99.90
14527;DHT22;7350;51.208;4.238;2023-05-21T06:21:41;20.70;99.90
14527;DHT22;7350;51.208;4.238;2023-05-21T06:24:08;20.70;99.90
14527;DHT22;7350;51.208;4.238;2023-05-21T06:26:35;20.70;99.90
14527;DHT22;7350;51.208;4.238;2023-05-21T06:29:03;20.60;99.90
14527;DHT22;7350;51.208;4.238;2023-05-21T06:31:30;20.70;99.90
14527;DHT22;7350;51.208;4.238;2023-05-21T06:33:58;20.70;99.90
14527;DHT22;7350;51.208;4.238;2023-05-21T06:36:26;20.70;99.90
14527;DHT22;7350;51.208;4.238;2023-05-21T06:38:54;20.70;99.90
14527;DHT22;7350;51.208;4.238;2023-05-21T06:41:22;20.70;99.90
14527;DHT22;7350;51.208;4.238;2023-05-21T06:43:49;20.70;99.90
14527;DHT22;7350;51.208;4.238;2023-05-21T06:46:17;20.80;99.90
14527;DHT22;7350;51.208;4.238;2023-05-21T06:48:44;20.80;99.90
14527;DHT22;7350;51.208;4.238;2023-05-21T06:51:11;20.70;99.90
14527;DHT22;7350;51.208;4.238;2023-05-21T06:53:38;20.70;99.90
14527;DHT22;7350;51.208;4.238;2023-05-21T06:56:06;20.80;99.90
14527;DHT22;7350;51.208;4.238;2023-05-21T06:58:33;20.70;99.90
14527;DHT22;7350;51.208;4.238;2023-05-21T07:01:00;20.70;99.90
14527;DHT22;7350;51.208;4.238;2023-05-21T07:03:28;20.70;99.90
14527;DHT22;7350;51.208;4.238;2023-05-21T07:05:56;20.70;99.90
14527;DHT22;7350;51.208;4.238;2023-05-21T07:08:23;20.70;99.90
14527;DHT22;7350;51.208;4.238;2023-05-21T07:10:50;20.70;99.90
14527;DHT22;7350;51.208;4.238;2023-05-21T07:13:16;20.70;99.90
14527;DHT22;7350;51.208;4.238;2023-05-21T07:15:43;20.70;99.90
14527;DHT22;7350;51.208;4.238;2023-05-21T07:18:10;20.80;99.90
14527;DHT22;7350;51.208;4.238;2023-05-21T07:20:39;20.80;99.90
14527;DHT22;7350;51.208;4.238;2023-05-21T07:23:06;20.80;99.90
14527;DHT22;7350;51.208;4.238;2023-05-21T07:25:33;20.80;99.90
14527;DHT22;7350;51.208;4.238;2023-05-21T07:27:59;20.80;99.90
14527;DHT22;7350;51.208;4.238;2023-05-21T07:30:26;20.80;99.90
14527;DHT22;7350;51.208;4.238;2023-05-21T07:32:53;20.80;99.90
14527;DHT22;7350;51.208;4.238;2023-05-21T07:35:21;20.80;99.90
14527;DHT22;7350;51.208;4.238;2023-05-21T07:37:49;20.80;99.90
14527;DHT22;7350;51.208;4.238;2023-05-21T07:40:16;20.80;99.90
14527;DHT22;7350;51.208;4.238;2023-05-21T07:42:43;20.80;99.90
14527;DHT22;7350;51.208;4.238;2023-05-21T07:45:10;20.80;99.90
14527;DHT22;7350;51.208;4.238;2023-05-21T07:47:37;20.80;99.90
14527;DHT22;7350;51.208;4.238;2023-05-21T07:50:04;20.80;99.90
14527;DHT22;7350;51.208;4.238;2023-05-21T07:52:31;20.80;99.90
14527;DHT22;7350;51.208;4.238;2023-05-21T07:55:00;20.80;99.90
14527;DHT22;7350;51.208;4.238;2023-05-21T07:57:27;20.90;99.90
14527;DHT22;7350;51.208;4.238;2023-05-21T07:59:54;20.90;99.90
14527;DHT22;7350;51.208;4.238;2023-05-21T08:02:21;20.90;99.90
14527;DHT22;7350;51.208;4.238;2023-05-21T08:04:48;20.90;99.90
14527;DHT22;7350;51.208;4.238;2023-05-21T08:07:15;20.90;99.90
14527;DHT22;7350;51.208;4.238;2023-05-21T08:09:44;20.90;99.90
14527;DHT22;7350;51.208;4.238;2023-05-21T08:12:13;20.90;99.90
14527;DHT22;7350;51.208;4.238;2023-05-21T08:14:40;20.90;99.90
14527;DHT22;7350;51.208;4.238;2023-05-21T08:17:08;20.90;99.90
14527;DHT22;7350;51.208;4.238;2023-05-21T08:19:35;20.90;99.90
14527;DHT22;7350;51.208;4.238;2023-05-21T08:22:02;21.00;99.90
14527;DHT22;7350;51.208;4.238;2023-05-21T08:24:31;20.90;99.90
14527;DHT22;7350;51.208;4.238;2023-05-21T08:26:57;21.00;99.90
14527;DHT22;7350;51.208;4.238;2023-05-21T08:29:26;21.00;99.90
14527;DHT22;7350;51.208;4.238;2023-05-21T08:31:53;21.00;99.90
14527;DHT22;7350;51.208;4.238;2023-05-21T08:34:20;21.00;99.90
14527;DHT22;7350;51.208;4.238;2023-05-21T08:36:47;21.00;99.90
14527;DHT22;7350;51.208;4.238;2023-05-21T08:39:14;21.00;99.90
14527;DHT22;7350;51.208;4.238;2023-05-21T08:41:42;21.00;99.90
14527;DHT22;7350;51.208;4.238;2023-05-21T08:44:14;21.00;99.90
14527;DHT22;7350;51.208;4.238;2023-05-21T08:46:48;21.00;99.90
14527;DHT22;7350;51.208;4.238;2023-05-21T08:49:17;21.00;99.90
14527;DHT22;7350;51.208;4.238;2023-05-21T08:51:49;21.10;99.90
14527;DHT22;7350;51.208;4.238;2023-05-21T08:54:16;21.10;99.90
14527;DHT22;7350;51.208;4.238;2023-05-21T08:56:44;21.10;99.90
14527;DHT22;7350;51.208;4.238;2023-05-21T08:59:14;21.10;99.90
14527;DHT22;7350;51.208;4.238;2023-05-21T09:01:45;21.10;99.90
14527;DHT22;7350;51.208;4.238;2023-05-21T09:04:14;21.10;99.90
14527;DHT22;7350;51.208;4.238;2023-05-21T09:06:43;21.10;99.90
14527;DHT22;7350;51.208;4.238;2023-05-21T09:09:21;21.10;99.90
14527;DHT22;7350;51.208;4.238;2023-05-21T09:11:50;21.10;99.90
14527;DHT22;7350;51.208;4.238;2023-05-21T09:14:18;21.10;99.90
14527;DHT22;7350;51.208;4.238;2023-05-21T09:16:46;21.10;99.90
14527;DHT22;7350;51.208;4.238;2023-05-21T09:19:13;21.10;99.90
14527;DHT22;7350;51.208;4.238;2023-05-21T09:21:40;21.10;99.90
14527;DHT22;7350;51.208;4.238;2023-05-21T09:24:08;21.20;99.90
14527;DHT22;7350;51.208;4.238;2023-05-21T09:26:36;21.20;99.90
14527;DHT22;7350;51.208;4.238;2023-05-21T09:29:06;21.20;99.90
14527;DHT22;7350;51.208;4.238;2023-05-21T09:31:33;21.20;99.90
14527;DHT22;7350;51.208;4.238;2023-05-21T09:34:02;21.20;99.90
14527;DHT22;7350;51.208;4.238;2023-05-21T09:36:29;21.20;99.90
14527;DHT22;7350;51.208;4.238;2023-05-21T09:38:56;21.20;99.90
14527;DHT22;7350;51.208;4.238;2023-05-21T09:41:30;21.30;99.90
14527;DHT22;7350;51.208;4.238;2023-05-21T09:43:59;21.30;99.90
14527;DHT22;7350;51.208;4.238;2023-05-21T09:46:26;21.30;99.90
14527;DHT22;7350;51.208;4.238;2023-05-21T09:48:53;21.30;99.90
14527;DHT22;7350;51.208;4.238;2023-05-21T09:51:22;21.20;99.90
14527;DHT22;7350;51.208;4.238;2023-05-21T09:53:50;21.30;99.90
14527;DHT22;7350;51.208;4.238;2023-05-21T09:56:21;21.20;99.90
14527;DHT22;7350;51.208;4.238;2023-05-21T09:58:51;21.30;99.90
14527;DHT22;7350;51.208;4.238;2023-05-21T10:01:19;21.30;99.90
14527;DHT22;7350;51.208;4.238;2023-05-21T10:03:53;21.30;99.90
14527;DHT22;7350;51.208;4.238;2023-05-21T10:06:23;21.30;99.90
14527;DHT22;7350;51.208;4.238;2023-05-21T10:08:53;21.30;99.90
14527;DHT22;7350;51.208;4.238;2023-05-21T10:11:22;21.30;99.90
14527;DHT22;7350;51.208;4.238;2023-05-21T10:13:53;21.30;99.90
14527;DHT22;7350;51.208;4.238;2023-05-21T10:16:21;21.30;99.90
14527;DHT22;7350;51.208;4.238;2023-05-21T10:18:49;21.30;99.90
14527;DHT22;7350;51.208;4.238;2023-05-21T10:21:20;21.30;99.90
14527;DHT22;7350;51.208;4.238;2023-05-21T10:23:48;21.30;99.90
14527;DHT22;7350;51.208;4.238;2023-05-21T10:26:17;21.30;99.90
14527;DHT22;7350;51.208;4.238;2023-05-21T10:28:45;21.30;99.90
14527;DHT22;7350;51.208;4.238;2023-05-21T10:31:12;21.40;99.90
14527;DHT22;7350;51.208;4.238;2023-05-21T10:33:40;21.40;99.90
14527;DHT22;7350;51.208;4.238;2023-05-21T10:36:08;21.40;99.90
14527;DHT22;7350;51.208;4.238;2023-05-21T10:38:37;21.40;99.90
14527;DHT22;7350;51.208;4.238;2023-05-21T10:41:06;21.50;99.90
14527;DHT22;7350;51.208;4.238;2023-05-21T10:43:43;21.50;99.90
14527;DHT22;7350;51.208;4.238;2023-05-21T10:46:35;21.50;99.90
14527;DHT22;7350;51.208;4.238;2023-05-21T10:49:18;21.60;99.90
14527;DHT22;7350;51.208;4.238;2023-05-21T10:51:54;21.50;99.90
14527;DHT22;7350;51.208;4.238;2023-05-21T10:54:55;21.60;99.90
14527;DHT22;7350;51.208;4.238;2023-05-21T10:57:40;21.60;99.90
14527;DHT22;7350;51.208;4.238;2023-05-21T11:00:12;21.70;99.90
14527;DHT22;7350;51.208;4.238;2023-05-21T11:02:41;21.70;99.90
14527;DHT22;7350;51.208;4.238;2023-05-21T11:05:10;21.70;99.90
14527;DHT22;7350;51.208;4.238;2023-05-21T11:07:50;21.70;99.90
14527;DHT22;7350;51.208;4.238;2023-05-21T11:10:30;21.80;99.90
14527;DHT22;7350;51.208;4.238;2023-05-21T11:13:06;21.80;99.90
14527;DHT22;7350;51.208;4.238;2023-05-21T11:16:12;21.80;99.90
14527;DHT22;7350;51.208;4.238;2023-05-21T11:19:01;21.90;99.90
14527;DHT22;7350;51.208;4.238;2023-05-21T11:21:33;21.80;99.90
14527;DHT22;7350;51.208;4.238;2023-05-21T11:24:05;21.90;99.90
14527;DHT22;7350;51.208;4.238;2023-05-21T11:27:00;21.90;99.90
14527;DHT22;7350;51.208;4.238;2023-05-21T11:29:36;22.00;99.90
14527;DHT22;7350;51.208;4.238;2023-05-21T11:32:06;22.00;99.90
14527;DHT22;7350;51.208;4.238;2023-05-21T11:34:38;22.00;99.90
14527;DHT22;7350;51.208;4.238;2023-05-21T11:37:23;22.00;99.90
14527;DHT22;7350;51.208;4.238;2023-05-21T11:39:52;22.00;99.90
14527;DHT22;7350;51.208;4.238;2023-05-21T11:42:29;22.00;99.90
14527;DHT22;7350;51.208;4.238;2023-05-21T11:44:58;22.00;99.90
14527;DHT22;7350;51.208;4.238;2023-05-21T11:47:26;22.00;99.90
14527;DHT22;7350;51.208;4.238;2023-05-21T11:49:53;22.00;99.90
14527;DHT22;7350;51.208;4.238;2023-05-21T11:52:21;22.00;99.90
14527;DHT22;7350;51.208;4.238;2023-05-21T11:54:51;22.00;99.90
14527;DHT22;7350;51.208;4.238;2023-05-21T11:57:20;22.00;99.90
14527;DHT22;7350;51.208;4.238;2023-05-21T11:59:48;22.00;99.90
14527;DHT22;7350;51.208;4.238;2023-05-21T12:02:18;22.00;99.90
14527;DHT22;7350;51.208;4.238;2023-05-21T12:04:47;22.00;99.90
14527;DHT22;7350;51.208;4.238;2023-05-21T12:07:15;22.00;99.90
14527;DHT22;7350;51.208;4.238;2023-05-21T12:09:45;22.10;99.90
14527;DHT22;7350;51.208;4.238;2023-05-21T12:12:14;22.10;99.90
14527;DHT22;7350;51.208;4.238;2023-05-21T12:14:43;22.20;99.90
14527;DHT22;7350;51.208;4.238;2023-05-21T12:17:11;22.30;99.90
14527;DHT22;7350;51.208;4.238;2023-05-21T12:19:40;22.30;99.90
14527;DHT22;7350;51.208;4.238;2023-05-21T12:22:08;22.30;99.90
14527;DHT22;7350;51.208;4.238;2023-05-21T12:24:36;22.30;99.90
14527;DHT22;7350;51.208;4.238;2023-05-21T12:27:05;22.30;99.90
14527;DHT22;7350;51.208;4.238;2023-05-21T12:29:35;22.20;99.90
14527;DHT22;7350;51.208;4.238;2023-05-21T12:32:07;22.20;99.90
14527;DHT22;7350;51.208;4.238;2023-05-21T12:34:42;22.20;99.90
14527;DHT22;7350;51.208;4.238;2023-05-21T12:37:11;22.40;99.90
14527;DHT22;7350;51.208;4.238;2023-05-21T12:39:43;22.30;99.90
14527;DHT22;7350;51.208;4.238;2023-05-21T12:42:11;22.30;99.90
14527;DHT22;7350;51.208;4.238;2023-05-21T12:44:38;22.30;99.90
14527;DHT22;7350;51.208;4.238;2023-05-21T12:47:06;22.20;99.90
14527;DHT22;7350;51.208;4.238;2023-05-21T12:49:35;22.20;99.90
14527;DHT22;7350;51.208;4.238;2023-05-21T12:52:10;22.30;99.90
14527;DHT22;7350;51.208;4.238;2023-05-21T12:54:40;22.30;99.90
14527;DHT22;7350;51.208;4.238;2023-05-21T12:57:09;22.30;99.90
14527;DHT22;7350;51.208;4.238;2023-05-21T12:59:47;22.20;99.90
14527;DHT22;7350;51.208;4.238;2023-05-21T13:02:23;22.20;99.90
14527;DHT22;7350;51.208;4.238;2023-05-21T13:04:55;22.20;99.90
14527;DHT22;7350;51.208;4.238;2023-05-21T13:07:23;22.20;99.90
14527;DHT22;7350;51.208;4.238;2023-05-21T13:09:51;22.20;99.90
14527;DHT22;7350;51.208;4.238;2023-05-21T13:12:19;22.20;99.90
14527;DHT22;7350;51.208;4.238;2023-05-21T13:14:48;22.20;99.90
14527;DHT22;7350;51.208;4.238;2023-05-21T13:17:15;22.20;99.90
14527;DHT22;7350;51.208;4.238;2023-05-21T13:19:42;22.20;99.90
14527;DHT22;7350;51.208;4.238;2023-05-21T13:22:10;22.30;99.90
14527;DHT22;7350;51.208;4.238;2023-05-21T13:24:38;22.30;99.90
14527;DHT22;7350;51.208;4.238;2023-05-21T13:27:05;22.30;99.90
14527;DHT22;7350;51.208;4.238;2023-05-21T13:29:32;22.30;99.90
14527;DHT22;7350;51.208;4.238;2023-05-21T13:32:00;22.30;99.90
14527;DHT22;7350;51.208;4.238;2023-05-21T13:34:27;22.30;99.90
14527;DHT22;7350;51.208;4.238;2023-05-21T13:36:54;22.30;99.90
14527;DHT22;7350;51.208;4.238;2023-05-21T13:39:21;22.40;99.90
14527;DHT22;7350;51.208;4.238;2023-05-21T13:41:53;22.40;99.90
14527;DHT22;7350;51.208;4.238;2023-05-21T13:44:20;22.40;99.90
14527;DHT22;7350;51.208;4.238;2023-05-21T13:46:47;22.40;99.90
14527;DHT22;7350;51.208;4.238;2023-05-21T13:49:14;22.40;99.90
14527;DHT22;7350;51.208;4.238;2023-05-21T13:51:41;22.40;99.90
14527;DHT22;7350;51.208;4.238;2023-05-21T13:54:08;22.50;99.90
14527;DHT22;7350;51.208;4.238;2023-05-21T13:56:35;22.40;99.90
14527;DHT22;7350;51.208;4.238;2023-05-21T13:59:03;22.50;99.90
14527;DHT22;7350;51.208;4.238;2023-05-21T14:01:30;22.50;99.90
14527;DHT22;7350;51.208;4.238;2023-05-21T14:03:57;22.50;99.90
14527;DHT22;7350;51.208;4.238;2023-05-21T14:06:29;22.50;99.90
14527;DHT22;7350;51.208;4.238;2023-05-21T14:08:56;22.50;99.90
14527;DHT22;7350;51.208;4.238;2023-05-21T14:11:23;22.60;99.90
14527;DHT22;7350;51.208;4.238;2023-05-21T14:13:51;22.50;99.90
14527;DHT22;7350;51.208;4.238;2023-05-21T14:16:19;22.60;99.90
14527;DHT22;7350;51.208;4.238;2023-05-21T14:18:49;22.60;99.90
14527;DHT22;7350;51.208;4.238;2023-05-21T14:21:16;22.70;99.90
14527;DHT22;7350;51.208;4.238;2023-05-21T14:23:43;22.70;99.90
14527;DHT22;7350;51.208;4.238;2023-05-21T14:26:10;22.70;99.90
14527;DHT22;7350;51.208;4.238;2023-05-21T14:28:37;22.60;99.90
14527;DHT22;7350;51.208;4.238;2023-05-21T14:31:04;22.60;99.90
14527;DHT22;7350;51.208;4.238;2023-05-21T14:33:35;22.70;99.90
14527;DHT22;7350;51.208;4.238;2023-05-21T14:36:03;22.70;99.90
14527;DHT22;7350;51.208;4.238;2023-05-21T14:38:30;22.80;99.90
14527;DHT22;7350;51.208;4.238;2023-05-21T14:40:57;22.80;99.90
14527;DHT22;7350;51.208;4.238;2023-05-21T14:43:24;22.80;99.90
14527;DHT22;7350;51.208;4.238;2023-05-21T14:45:51;22.80;99.90
14527;DHT22;7350;51.208;4.238;2023-05-21T14:48:18;22.90;99.90
14527;DHT22;7350;51.208;4.238;2023-05-21T14:50:49;22.90;99.90
14527;DHT22;7350;51.208;4.238;2023-05-21T14:53:16;23.00;99.90
14527;DHT22;7350;51.208;4.238;2023-05-21T14:55:43;22.90;99.90
14527;DHT22;7350;51.208;4.238;2023-05-21T14:58:14;22.90;99.90
14527;DHT22;7350;51.208;4.238;2023-05-21T15:00:40;22.90;99.90
14527;DHT22;7350;51.208;4.238;2023-05-21T15:03:08;22.90;99.90
14527;DHT22;7350;51.208;4.238;2023-05-21T15:05:35;22.90;99.90
14527;DHT22;7350;51.208;4.238;2023-05-21T15:08:03;22.90;99.90
14527;DHT22;7350;51.208;4.238;2023-05-21T15:10:31;22.90;99.90
14527;DHT22;7350;51.208;4.238;2023-05-21T15:12:58;23.00;99.90
14527;DHT22;7350;51.208;4.238;2023-05-21T15:15:25;23.00;99.90
14527;DHT22;7350;51.208;4.238;2023-05-21T15:17:52;23.10;99.90
14527;DHT22;7350;51.208;4.238;2023-05-21T15:20:19;23.00;99.90
14527;DHT22;7350;51.208;4.238;2023-05-21T15:22:46;23.00;99.90
14527;DHT22;7350;51.208;4.238;2023-05-21T15:25:15;23.10;99.90
14527;DHT22;7350;51.208;4.238;2023-05-21T15:27:43;23.20;99.90
14527;DHT22;7350;51.208;4.238;2023-05-21T15:30:11;23.20;99.90
14527;DHT22;7350;51.208;4.238;2023-05-21T15:32:38;23.20;99.90
14527;DHT22;7350;51.208;4.238;2023-05-21T15:35:05;23.30;99.90
14527;DHT22;7350;51.208;4.238;2023-05-21T15:37:32;23.30;99.90
14527;DHT22;7350;51.208;4.238;2023-05-21T15:39:59;23.30;99.90
14527;DHT22;7350;51.208;4.238;2023-05-21T15:42:28;23.40;99.90
14527;DHT22;7350;51.208;4.238;2023-05-21T15:44:56;23.40;99.90
14527;DHT22;7350;51.208;4.238;2023-05-21T15:47:23;23.40;99.90
14527;DHT22;7350;51.208;4.238;2023-05-21T15:49:50;23.50;99.90
14527;DHT22;7350;51.208;4.238;2023-05-21T15:52:17;23.50;99.90
14527;DHT22;7350;51.208;4.238;2023-05-21T15:54:44;23.50;99.90